sensor_id;sensor_type;location;lat;lon;timestamp;pressure;altitude;pressure_sealevel;temperature;humidity
46087;BME280;31824;49.648;8.640;2023-06-19T00:01:00;99731.34;;;23.86;100.00
46087;BME280;31824;49.648;8.640;2023-06-19T00:04:27;99735.44;;;24.02;100.00
46087;BME280;31824;49.648;8.640;2023-06-19T00:07:33;99725.66;;;24.04;100.00
46087;BME280;31824;49.648;8.640;2023-06-19T00:10:43;99714.94;;;23.77;100.00
46087;BME280;31824;49.648;8.640;2023-06-19T00:13:45;99715.75;;;23.46;100.00
46087;BME280;31824;49.648;8.640;2023-06-19T00:17:13;99738.75;;;23.66;100.00
46087;BME280;31824;49.648;8.640;2023-06-19T00:20:44;99730.66;;;23.65;100.00
46087;BME280;31824;49.648;8.640;2023-06-19T00:23:48;99735.84;;;23.31;100.00
46087;BME280;31824;49.648;8.640;2023-06-19T00:26:50;99725.88;;;23.27;100.00
46087;BME280;31824;49.648;8.640;2023-06-19T00:29:56;99732.19;;;23.29;100.00
46087;BME280;31824;49.648;8.640;2023-06-19T00:33:08;99729.44;;;23.02;100.00
46087;BME280;31824;49.648;8.640;2023-06-19T00:36:35;99728.69;;;23.32;100.00
46087;BME280;31824;49.648;8.640;2023-06-19T00:40:07;99722.44;;;23.31;100.00
46087;BME280;31824;49.648;8.640;2023-06-19T00:43:14;99727.53;;;23.51;100.00
46087;BME280;31824;49.648;8.640;2023-06-19T00:46:16;99730.66;;;23.65;100.00
46087;BME280;31824;49.648;8.640;2023-06-19T00:49:21;99745.97;;;23.69;100.00
46087;BME280;31824;49.648;8.640;2023-06-19T00:52:23;99745.19;;;23.71;100.00
46087;BME280;31824;49.648;8.640;2023-06-19T00:55:28;99731.31;;;23.57;100.00
46087;BME280;31824;49.648;8.640;2023-06-19T00:58:33;99745.13;;;23.42;100.00
46087;BME280;31824;49.648;8.640;2023-06-19T01:01:36;99757.81;;;23.21;100.00
46087;BME280;31824;49.648;8.640;2023-06-19T01:05:05;99756.16;;;23.24;100.00
46087;BME280;31824;49.648;8.640;2023-06-19T01:08:10;99754.41;;;23.01;100.00
46087;BME280;31824;49.648;8.640;2023-06-19T01:11:17;99749.41;;;22.86;100.00
46087;BME280;31824;49.648;8.640;2023-06-19T01:14:32;99753.34;;;22.96;100.00
46087;BME280;31824;49.648;8.640;2023-06-19T01:17:37;99748.84;;;22.95;100.00
46087;BME280;31824;49.648;8.640;2023-06-19T01:21:12;99748.91;;;22.72;100.00
46087;BME280;31824;49.648;8.640;2023-06-19T01:24:16;99743.06;;;22.82;100.00
46087;BME280;31824;49.648;8.640;2023-06-19T01:27:43;99750.94;;;22.79;100.00
46087;BME280;31824;49.648;8.640;2023-06-19T01:30:45;99760.75;;;22.79;100.00
46087;BME280;31824;49.648;8.640;2023-06-19T01:34:15;99771.97;;;22.92;100.00
46087;BME280;31824;49.648;8.640;2023-06-19T01:37:44;99781.78;;;22.92;100.00
46087;BME280;31824;49.648;8.640;2023-06-19T01:40:52;99781.84;;;22.93;100.00
46087;BME280;31824;49.648;8.640;2023-06-19T01:44:20;99804.91;;;22.90;100.00
46087;BME280;31824;49.648;8.640;2023-06-19T01:47:23;99803.03;;;22.87;100.00
46087;BME280;31824;49.648;8.640;2023-06-19T01:50:50;99806.34;;;22.80;100.00
46087;BME280;31824;49.648;8.640;2023-06-19T01:54:17;99806.19;;;22.75;100.00
46087;BME280;31824;49.648;8.640;2023-06-19T01:57:20;99809.47;;;22.68;100.00
46087;BME280;31824;49.648;8.640;2023-06-19T02:00:48;99826.22;;;22.63;100.00
46087;BME280;31824;49.648;8.640;2023-06-19T02:04:15;99820.72;;;22.58;100.00
46087;BME280;31824;49.648;8.640;2023-06-19T02:07:18;99823.38;;;22.58;100.00
46087;BME280;31824;49.648;8.640;2023-06-19T02:10:22;99832.31;;;22.58;100.00
46087;BME280;31824;49.648;8.640;2023-06-19T02:13:26;99825.75;;;22.50;100.00
46087;BME280;31824;49.648;8.640;2023-06-19T02:16:28;99820.03;;;22.41;100.00
46087;BME280;31824;49.648;8.640;2023-06-19T02:19:32;99825.63;;;22.24;100.00
46087;BME280;31824;49.648;8.640;2023-06-19T02:22:34;99833.91;;;22.53;100.00
46087;BME280;31824;49.648;8.640;2023-06-19T02:25:39;99831.00;;;22.47;100.00
46087;BME280;31824;49.648;8.640;2023-06-19T02:28:44;99837.31;;;22.49;100.00
46087;BME280;31824;49.648;8.640;2023-06-19T02:31:46;99842.06;;;22.56;100.00
46087;BME280;31824;49.648;8.640;2023-06-19T02:34:48;99835.69;;;22.53;100.00
46087;BME280;31824;49.648;8.640;2023-06-19T02:37:50;99840.13;;;22.52;100.00
46087;BME280;31824;49.648;8.640;2023-06-19T02:40:54;99838.41;;;22.32;100.00
46087;BME280;31824;49.648;8.640;2023-06-19T02:43:57;99836.47;;;22.50;100.00
46087;BME280;31824;49.648;8.640;2023-06-19T02:46:59;99848.63;;;22.65;100.00
46087;BME280;31824;49.648;8.640;2023-06-19T02:50:02;99853.47;;;22.75;100.00
46087;BME280;31824;49.648;8.640;2023-06-19T02:53:05;99864.31;;;22.78;100.00
46087;BME280;31824;49.648;8.640;2023-06-19T02:56:07;99874.41;;;22.63;100.00
46087;BME280;31824;49.648;8.640;2023-06-19T02:59:10;99873.13;;;22.75;100.00
46087;BME280;31824;49.648;8.640;2023-06-19T03:02:12;99871.00;;;22.67;100.00
46087;BME280;31824;49.648;8.640;2023-06-19T03:05:16;99871.16;;;22.70;100.00
46087;BME280;31824;49.648;8.640;2023-06-19T03:08:18;99872.94;;;22.71;100.00
46087;BME280;31824;49.648;8.640;2023-06-19T03:11:20;99875.03;;;22.78;100.00
46087;BME280;31824;49.648;8.640;2023-06-19T03:14:24;99872.19;;;22.75;100.00
46087;BME280;31824;49.648;8.640;2023-06-19T03:17:29;99881.84;;;22.70;100.00
46087;BME280;31824;49.648;8.640;2023-06-19T03:20:58;99903.44;;;22.74;100.00
46087;BME280;31824;49.648;8.640;2023-06-19T03:24:02;99912.09;;;22.67;100.00
46087;BME280;31824;49.648;8.640;2023-06-19T03:27:31;99904.00;;;22.66;100.00
46087;BME280;31824;49.648;8.640;2023-06-19T03:30:36;99906.59;;;22.64;100.00
46087;BME280;31824;49.648;8.640;2023-06-19T03:34:04;99900.03;;;22.56;100.00
46087;BME280;31824;49.648;8.640;2023-06-19T03:37:35;99914.16;;;22.52;100.00
46087;BME280;31824;49.648;8.640;2023-06-19T03:40:37;99914.28;;;22.55;100.00
46087;BME280;31824;49.648;8.640;2023-06-19T03:44:10;99924.81;;;22.50;100.00
46087;BME280;31824;49.648;8.640;2023-06-19T03:47:14;99919.28;;;22.46;100.00
46087;BME280;31824;49.648;8.640;2023-06-19T03:50:18;99930.50;;;22.37;100.00
46087;BME280;31824;49.648;8.640;2023-06-19T03:53:49;99938.22;;;22.29;100.00
46087;BME280;31824;49.648;8.640;2023-06-19T03:56:51;99940.56;;;22.21;100.00
46087;BME280;31824;49.648;8.640;2023-06-19T03:59:53;99941.34;;;22.19;100.00
46087;BME280;31824;49.648;8.640;2023-06-19T04:03:24;99942.50;;;22.04;100.00
46087;BME280;31824;49.648;8.640;2023-06-19T04:06:26;99942.88;;;21.91;100.00
46087;BME280;31824;49.648;8.640;2023-06-19T04:09:28;99948.06;;;21.88;100.00
46087;BME280;31824;49.648;8.640;2023-06-19T04:12:56;99953.22;;;21.83;100.00
46087;BME280;31824;49.648;8.640;2023-06-19T04:15:58;99947.75;;;21.80;100.00
46087;BME280;31824;49.648;8.640;2023-06-19T04:19:04;99969.47;;;21.67;100.00
46087;BME280;31824;49.648;8.640;2023-06-19T04:22:10;99964.09;;;21.67;100.00
46087;BME280;31824;49.648;8.640;2023-06-19T04:25:37;99962.97;;;21.62;100.00
46087;BME280;31824;49.648;8.640;2023-06-19T04:28:39;99971.31;;;21.50;100.00
46087;BME280;31824;49.648;8.640;2023-06-19T04:31:41;99973.94;;;21.48;100.00
46087;BME280;31824;49.648;8.640;2023-06-19T04:34:45;99970.81;;;21.57;100.00
46087;BME280;31824;49.648;8.640;2023-06-19T04:37:47;99977.06;;;21.57;100.00
46087;BME280;31824;49.648;8.640;2023-06-19T04:40:51;99977.78;;;21.53;100.00
46087;BME280;31824;49.648;8.640;2023-06-19T04:43:54;99977.06;;;21.57;100.00
46087;BME280;31824;49.648;8.640;2023-06-19T04:47:23;99985.28;;;21.62;100.00
46087;BME280;31824;49.648;8.640;2023-06-19T04:50:35;99980.84;;;21.63;100.00
46087;BME280;31824;49.648;8.640;2023-06-19T04:54:04;99986.53;;;21.70;100.00
46087;BME280;31824;49.648;8.640;2023-06-19T04:57:09;99989.59;;;21.80;100.00
46087;BME280;31824;49.648;8.640;2023-06-19T05:00:16;99986.44;;;21.88;100.00
46087;BME280;31824;49.648;8.640;2023-06-19T05:03:46;99990.59;;;21.82;100.00
46087;BME280;31824;49.648;8.640;2023-06-19T05:06:50;99995.88;;;21.80;100.00
46087;BME280;31824;49.648;8.640;2023-06-19T05:09:56;99999.41;;;21.79;100.00
46087;BME280;31824;49.648;8.640;2023-06-19T05:13:24;99994.69;;;21.73;100.00
46087;BME280;31824;49.648;8.640;2023-06-19T05:16:53;100007.19;;;21.74;100.00
46087;BME280;31824;49.648;8.640;2023-06-19T05:19:55;99995.72;;;21.77;100.00
46087;BME280;31824;49.648;8.640;2023-06-19T05:22:58;99993.78;;;21.73;100.00
46087;BME280;31824;49.648;8.640;2023-06-19T05:26:04;99989.84;;;21.84;100.00
46087;BME280;31824;49.648;8.640;2023-06-19T05:29:31;99983.53;;;21.84;100.00
46087;BME280;31824;49.648;8.640;2023-06-19T05:33:00;99986.22;;;21.84;100.00
46087;BME280;31824;49.648;8.640;2023-06-19T05:36:29;99990.72;;;21.85;100.00
46087;BME280;31824;49.648;8.640;2023-06-19T05:39:33;99997.84;;;21.84;100.00
46087;BME280;31824;49.648;8.640;2023-06-19T05:42:35;99996.53;;;21.96;100.00
46087;BME280;31824;49.648;8.640;2023-06-19T05:45:37;99994.63;;;22.13;100.00
46087;BME280;31824;49.648;8.640;2023-06-19T05:49:04;99999.81;;;22.09;100.00
46087;BME280;31824;49.648;8.640;2023-06-19T05:52:07;99999.25;;;22.17;100.00
46087;BME280;31824;49.648;8.640;2023-06-19T05:55:40;99997.88;;;22.26;100.00
46087;BME280;31824;49.648;8.640;2023-06-19T05:58:42;100000.66;;;22.30;100.00
46087;BME280;31824;49.648;8.640;2023-06-19T06:02:12;100004.34;;;22.32;100.00
46087;BME280;31824;49.648;8.640;2023-06-19T06:05:14;100004.13;;;22.27;100.00
46087;BME280;31824;49.648;8.640;2023-06-19T06:08:19;100008.81;;;22.33;100.00
46087;BME280;31824;49.648;8.640;2023-06-19T06:11:22;100013.53;;;22.38;100.00
46087;BME280;31824;49.648;8.640;2023-06-19T06:14:50;100020.00;;;22.65;100.00
46087;BME280;31824;49.648;8.640;2023-06-19T06:18:18;100017.31;;;22.65;100.00
46087;BME280;31824;49.648;8.640;2023-06-19T06:21:21;100015.47;;;22.64;100.00
46087;BME280;31824;49.648;8.640;2023-06-19T06:24:49;100024.22;;;22.59;100.00
46087;BME280;31824;49.648;8.640;2023-06-19T06:27:52;100020.94;;;22.67;100.00
46087;BME280;31824;49.648;8.640;2023-06-19T06:30:55;100020.84;;;22.64;100.00
46087;BME280;31824;49.648;8.640;2023-06-19T06:38:58;100017.69;;;22.74;100.00
46087;BME280;31824;49.648;8.640;2023-06-19T06:42:29;100022.81;;;22.90;100.00
46087;BME280;31824;49.648;8.640;2023-06-19T06:45:36;100019.97;;;23.10;100.00
46087;BME280;31824;49.648;8.640;2023-06-19T06:49:07;100027.13;;;23.09;100.00
46087;BME280;31824;49.648;8.640;2023-06-19T06:52:09;100014.88;;;23.15;100.00
46087;BME280;31824;49.648;8.640;2023-06-19T06:55:11;100021.28;;;23.20;100.00
46087;BME280;31824;49.648;8.640;2023-06-19T06:58:19;100015.13;;;23.22;100.00
46087;BME280;31824;49.648;8.640;2023-06-19T07:01:26;100021.22;;;23.18;100.00
46087;BME280;31824;49.648;8.640;2023-06-19T07:04:29;100025.72;;;23.42;100.00
46087;BME280;31824;49.648;8.640;2023-06-19T07:07:31;100025.31;;;23.55;100.00
46087;BME280;31824;49.648;8.640;2023-06-19T07:10:35;100031.66;;;23.57;100.00
46087;BME280;31824;49.648;8.640;2023-06-19T07:13:38;100044.38;;;23.63;100.00
46087;BME280;31824;49.648;8.640;2023-06-19T07:16:47;100040.53;;;23.56;100.00
46087;BME280;31824;49.648;8.640;2023-06-19T07:19:49;100038.94;;;23.62;100.00
46087;BME280;31824;49.648;8.640;2023-06-19T07:22:51;100043.31;;;23.84;100.00
46087;BME280;31824;49.648;8.640;2023-06-19T07:26:19;100039.25;;;23.93;100.00
46087;BME280;31824;49.648;8.640;2023-06-19T07:29:21;100045.34;;;23.89;100.00
46087;BME280;31824;49.648;8.640;2023-06-19T07:32:50;100050.16;;;23.98;100.00
46087;BME280;31824;49.648;8.640;2023-06-19T07:35:52;100054.63;;;23.98;100.00
46087;BME280;31824;49.648;8.640;2023-06-19T07:38:55;100051.19;;;24.02;100.00
46087;BME280;31824;49.648;8.640;2023-06-19T07:41:57;100043.69;;;23.93;100.00
46087;BME280;31824;49.648;8.640;2023-06-19T07:44:59;100053.59;;;24.20;100.00
46087;BME280;31824;49.648;8.640;2023-06-19T07:48:02;100062.94;;;24.58;100.00
46087;BME280;31824;49.648;8.640;2023-06-19T07:51:30;100063.34;;;24.18;100.00
46087;BME280;31824;49.648;8.640;2023-06-19T07:54:34;100067.50;;;24.34;100.00
46087;BME280;31824;49.648;8.640;2023-06-19T07:57:36;100073.25;;;24.70;100.00
46087;BME280;31824;49.648;8.640;2023-06-19T08:01:03;100078.34;;;24.63;100.00
46087;BME280;31824;49.648;8.640;2023-06-19T08:04:07;100067.91;;;24.46;100.00
46087;BME280;31824;49.648;8.640;2023-06-19T08:07:09;100079.63;;;24.48;100.00
46087;BME280;31824;49.648;8.640;2023-06-19T08:10:11;100088.44;;;24.44;100.00
46087;BME280;31824;49.648;8.640;2023-06-19T08:13:18;100092.06;;;24.46;100.00
46087;BME280;31824;49.648;8.640;2023-06-19T08:16:20;100085.31;;;24.57;100.00
46087;BME280;31824;49.648;8.640;2023-06-19T08:19:49;100090.78;;;24.60;100.00
46087;BME280;31824;49.648;8.640;2023-06-19T08:22:51;100089.75;;;24.83;100.00
46087;BME280;31824;49.648;8.640;2023-06-19T08:25:53;100096.91;;;24.82;100.00
46087;BME280;31824;49.648;8.640;2023-06-19T08:28:55;100092.53;;;24.60;100.00
46087;BME280;31824;49.648;8.640;2023-06-19T08:32:22;100100.38;;;24.78;100.00
46087;BME280;31824;49.648;8.640;2023-06-19T08:35:25;100097.06;;;24.61;100.00
46087;BME280;31824;49.648;8.640;2023-06-19T08:38:28;100097.56;;;24.75;100.00
46087;BME280;31824;49.648;8.640;2023-06-19T08:41:29;100096.13;;;24.85;100.00
46087;BME280;31824;49.648;8.640;2023-06-19T08:44:33;100107.00;;;24.89;100.00
46087;BME280;31824;49.648;8.640;2023-06-19T08:48:00;100101.41;;;24.83;100.00
46087;BME280;31824;49.648;8.640;2023-06-19T08:51:05;100101.63;;;24.89;100.00
46087;BME280;31824;49.648;8.640;2023-06-19T08:54:07;100105.16;;;24.88;100.00
46087;BME280;31824;49.648;8.640;2023-06-19T08:57:13;100105.94;;;24.84;100.00
46087;BME280;31824;49.648;8.640;2023-06-19T09:00:23;100109.03;;;24.45;100.00
46087;BME280;31824;49.648;8.640;2023-06-19T09:03:25;100117.53;;;24.83;100.00
46087;BME280;31824;49.648;8.640;2023-06-19T09:06:29;100115.38;;;24.71;100.00
46087;BME280;31824;49.648;8.640;2023-06-19T09:09:35;100105.69;;;24.51;100.00
46087;BME280;31824;49.648;8.640;2023-06-19T09:12:41;100120.03;;;24.77;100.00
46087;BME280;31824;49.648;8.640;2023-06-19T09:15:46;100116.44;;;24.76;100.00
46087;BME280;31824;49.648;8.640;2023-06-19T09:18:50;100118.16;;;24.74;100.00
46087;BME280;31824;49.648;8.640;2023-06-19T09:22:01;100119.22;;;24.80;100.00
46087;BME280;31824;49.648;8.640;2023-06-19T09:25:53;100125.25;;;25.00;100.00
46087;BME280;31824;49.648;8.640;2023-06-19T09:28:57;100117.25;;;24.74;100.00
46087;BME280;31824;49.648;8.640;2023-06-19T09:32:00;100116.94;;;24.65;100.00
46087;BME280;31824;49.648;8.640;2023-06-19T09:35:22;100112.34;;;24.62;100.00
46087;BME280;31824;49.648;8.640;2023-06-19T09:38:29;100116.22;;;24.70;100.00
46087;BME280;31824;49.648;8.640;2023-06-19T09:41:36;100120.16;;;24.82;100.00
46087;BME280;31824;49.648;8.640;2023-06-19T09:44:46;100122.84;;;25.09;100.00
46087;BME280;31824;49.648;8.640;2023-06-19T09:47:52;100114.69;;;25.06;100.00
46087;BME280;31824;49.648;8.640;2023-06-19T09:51:30;100123.03;;;24.86;100.00
46087;BME280;31824;49.648;8.640;2023-06-19T09:54:34;100121.19;;;24.85;100.00
46087;BME280;31824;49.648;8.640;2023-06-19T09:57:38;100111.22;;;24.81;100.00
46087;BME280;31824;49.648;8.640;2023-06-19T10:00:40;100106.50;;;25.01;100.00
46087;BME280;31824;49.648;8.640;2023-06-19T10:03:42;100110.59;;;24.90;100.00
46087;BME280;31824;49.648;8.640;2023-06-19T10:06:46;100118.88;;;24.96;100.00
46087;BME280;31824;49.648;8.640;2023-06-19T10:09:57;100102.81;;;25.55;100.00
46087;BME280;31824;49.648;8.640;2023-06-19T10:13:11;100106.31;;;25.82;100.00
46087;BME280;31824;49.648;8.640;2023-06-19T10:16:22;100105.88;;;25.98;100.00
46087;BME280;31824;49.648;8.640;2023-06-19T10:19:55;100110.59;;;26.05;100.00
46087;BME280;31824;49.648;8.640;2023-06-19T10:23:18;100110.34;;;25.98;100.00
46087;BME280;31824;49.648;8.640;2023-06-19T10:26:31;100115.06;;;25.74;100.00
46087;BME280;31824;49.648;8.640;2023-06-19T10:29:40;100108.09;;;25.52;100.00
46087;BME280;31824;49.648;8.640;2023-06-19T10:33:45;100105.41;;;25.52;100.00
46087;BME280;31824;49.648;8.640;2023-06-19T10:36:47;100111.44;;;25.74;100.00
46087;BME280;31824;49.648;8.640;2023-06-19T10:39:49;100102.34;;;26.01;100.00
46087;BME280;31824;49.648;8.640;2023-06-19T10:42:52;100100.44;;;26.28;100.00
46087;BME280;31824;49.648;8.640;2023-06-19T10:45:54;100092.75;;;26.42;100.00
46087;BME280;31824;49.648;8.640;2023-06-19T10:48:57;100088.66;;;26.93;100.00
46087;BME280;31824;49.648;8.640;2023-06-19T10:52:03;100082.88;;;26.76;100.00
46087;BME280;31824;49.648;8.640;2023-06-19T10:55:06;100077.31;;;26.70;100.00
46087;BME280;31824;49.648;8.640;2023-06-19T10:58:15;100081.91;;;26.74;100.00
46087;BME280;31824;49.648;8.640;2023-06-19T11:01:18;100076.47;;;26.71;100.00
46087;BME280;31824;49.648;8.640;2023-06-19T11:04:24;100070.53;;;26.51;100.00
46087;BME280;31824;49.648;8.640;2023-06-19T11:07:32;100063.34;;;26.52;100.00
46087;BME280;31824;49.648;8.640;2023-06-19T11:10:58;100063.56;;;26.96;100.00
46087;BME280;31824;49.648;8.640;2023-06-19T11:14:01;100064.56;;;27.00;100.00
46087;BME280;31824;49.648;8.640;2023-06-19T11:17:04;100064.47;;;26.96;100.00
46087;BME280;31824;49.648;8.640;2023-06-19T11:20:12;100061.94;;;27.03;100.00
46087;BME280;31824;49.648;8.640;2023-06-19T11:23:40;100056.72;;;27.49;100.00
46087;BME280;31824;49.648;8.640;2023-06-19T11:26:50;100053.19;;;27.53;100.00
46087;BME280;31824;49.648;8.640;2023-06-19T11:29:56;100048.56;;;27.47;100.00
46087;BME280;31824;49.648;8.640;2023-06-19T11:33:00;100050.25;;;27.40;100.00
46087;BME280;31824;49.648;8.640;2023-06-19T11:36:27;100040.06;;;27.28;100.00
46087;BME280;31824;49.648;8.640;2023-06-19T11:39:54;100031.53;;;27.10;100.00
46087;BME280;31824;49.648;8.640;2023-06-19T11:42:58;100038.94;;;27.60;100.00
46087;BME280;31824;49.648;8.640;2023-06-19T11:46:30;100036.28;;;27.61;100.00
46087;BME280;31824;49.648;8.640;2023-06-19T11:49:35;100036.31;;;27.63;100.00
46087;BME280;31824;49.648;8.640;2023-06-19T11:52:37;100034.75;;;27.33;100.00
46087;BME280;31824;49.648;8.640;2023-06-19T11:55:39;100035.44;;;27.64;100.00
46087;BME280;31824;49.648;8.640;2023-06-19T11:58:41;100023.59;;;28.02;100.00
46087;BME280;31824;49.648;8.640;2023-06-19T12:01:47;100023.84;;;28.14;100.00
46087;BME280;31824;49.648;8.640;2023-06-19T12:04:53;100032.19;;;28.28;100.00
46087;BME280;31824;49.648;8.640;2023-06-19T12:07:55;100020.34;;;28.21;100.00
46087;BME280;31824;49.648;8.640;2023-06-19T12:11:01;100025.53;;;28.61;100.00
46087;BME280;31824;49.648;8.640;2023-06-19T12:14:27;100035.22;;;28.46;100.00
46087;BME280;31824;49.648;8.640;2023-06-19T12:17:59;100023.94;;;28.20;100.00
46087;BME280;31824;49.648;8.640;2023-06-19T12:21:03;100033.41;;;28.47;100.00
46087;BME280;31824;49.648;8.640;2023-06-19T12:24:06;100021.75;;;28.51;100.00
46087;BME280;31824;49.648;8.640;2023-06-19T12:27:08;100012.38;;;28.83;100.00
46087;BME280;31824;49.648;8.640;2023-06-19T12:30:11;100023.06;;;28.75;100.00
46087;BME280;31824;49.648;8.640;2023-06-19T12:33:39;100020.72;;;28.43;100.00
46087;BME280;31824;49.648;8.640;2023-06-19T12:36:44;100025.38;;;28.01;100.00
46087;BME280;31824;49.648;8.640;2023-06-19T12:39:47;100024.44;;;27.99;100.00
46087;BME280;31824;49.648;8.640;2023-06-19T12:42:49;100019.03;;;27.99;100.00
46087;BME280;31824;49.648;8.640;2023-06-19T12:45:52;100016.47;;;28.07;100.00
46087;BME280;31824;49.648;8.640;2023-06-19T12:48:55;100021.56;;;28.39;100.00
46087;BME280;31824;49.648;8.640;2023-06-19T12:51:57;100019.03;;;28.50;100.00
46087;BME280;31824;49.648;8.640;2023-06-19T12:54:59;100021.75;;;28.51;100.00
46087;BME280;31824;49.648;8.640;2023-06-19T12:58:04;100013.94;;;28.67;100.00
46087;BME280;31824;49.648;8.640;2023-06-19T13:01:06;100012.22;;;28.73;100.00
46087;BME280;31824;49.648;8.640;2023-06-19T13:04:12;100016.59;;;28.63;100.00
46087;BME280;31824;49.648;8.640;2023-06-19T13:07:15;100007.44;;;28.57;100.00
46087;BME280;31824;49.648;8.640;2023-06-19T13:10:24;100000.53;;;28.21;100.00
46087;BME280;31824;49.648;8.640;2023-06-19T13:13:51;100000.13;;;29.06;100.00
46087;BME280;31824;49.648;8.640;2023-06-19T13:16:53;100002.56;;;28.89;100.00
46087;BME280;31824;49.648;8.640;2023-06-19T13:19:57;99996.97;;;29.40;100.00
46087;BME280;31824;49.648;8.640;2023-06-19T13:22:59;99999.75;;;29.46;100.00
46087;BME280;31824;49.648;8.640;2023-06-19T13:26:26;100004.75;;;28.58;100.00
46087;BME280;31824;49.648;8.640;2023-06-19T13:29:28;100003.31;;;28.25;100.00
46087;BME280;31824;49.648;8.640;2023-06-19T13:32:30;100008.06;;;28.40;100.00
46087;BME280;31824;49.648;8.640;2023-06-19T13:35:34;100000.31;;;28.62;100.00
46087;BME280;31824;49.648;8.640;2023-06-19T13:38:36;99997.25;;;29.63;100.00
46087;BME280;31824;49.648;8.640;2023-06-19T13:41:38;99996.53;;;29.81;100.00
46087;BME280;31824;49.648;8.640;2023-06-19T13:44:44;99992.44;;;30.20;100.00
46087;BME280;31824;49.648;8.640;2023-06-19T13:48:12;99986.06;;;30.15;100.00
46087;BME280;31824;49.648;8.640;2023-06-19T13:51:15;99989.00;;;30.38;100.00
46087;BME280;31824;49.648;8.640;2023-06-19T13:54:18;99979.72;;;30.10;100.00
46087;BME280;31824;49.648;8.640;2023-06-19T13:57:22;99968.13;;;30.29;100.00
46087;BME280;31824;49.648;8.640;2023-06-19T14:00:24;99969.38;;;30.69;100.00
46087;BME280;31824;49.648;8.640;2023-06-19T14:03:27;99971.13;;;29.68;100.00
46087;BME280;31824;49.648;8.640;2023-06-19T14:06:55;99963.56;;;29.36;100.00
46087;BME280;31824;49.648;8.640;2023-06-19T14:09:57;99963.56;;;29.36;100.00
46087;BME280;31824;49.648;8.640;2023-06-19T14:12:59;99957.38;;;29.50;100.00
46087;BME280;31824;49.648;8.640;2023-06-19T14:16:26;99951.78;;;29.33;100.00
46087;BME280;31824;49.648;8.640;2023-06-19T14:19:28;99945.25;;;29.18;100.00
46087;BME280;31824;49.648;8.640;2023-06-19T14:22:57;99945.06;;;29.03;100.00
46087;BME280;31824;49.648;8.640;2023-06-19T14:25:59;99941.50;;;29.05;100.00
46087;BME280;31824;49.648;8.640;2023-06-19T14:29:01;99945.31;;;29.21;100.00
46087;BME280;31824;49.648;8.640;2023-06-19T14:32:03;99943.47;;;29.19;100.00
46087;BME280;31824;49.648;8.640;2023-06-19T14:35:31;99949.78;;;29.21;100.00
46087;BME280;31824;49.648;8.640;2023-06-19T14:38:59;99947.78;;;29.78;100.00
46087;BME280;31824;49.648;8.640;2023-06-19T14:42:25;99950.13;;;30.38;100.00
46087;BME280;31824;49.648;8.640;2023-06-19T14:45:56;99949.84;;;30.01;100.00
46087;BME280;31824;49.648;8.640;2023-06-19T14:49:23;99956.16;;;30.03;100.00
46087;BME280;31824;49.648;8.640;2023-06-19T14:52:25;99946.63;;;29.54;100.00
46087;BME280;31824;49.648;8.640;2023-06-19T14:55:54;99940.50;;;29.74;100.00
46087;BME280;31824;49.648;8.640;2023-06-19T14:59:21;99935.03;;;30.69;100.00
46087;BME280;31824;49.648;8.640;2023-06-19T15:02:24;99932.84;;;30.20;100.00
46087;BME280;31824;49.648;8.640;2023-06-19T15:05:51;99928.44;;;30.36;100.00
46087;BME280;31824;49.648;8.640;2023-06-19T15:08:53;99935.81;;;30.48;100.00
46087;BME280;31824;49.648;8.640;2023-06-19T15:11:56;99931.16;;;30.33;100.00
46087;BME280;31824;49.648;8.640;2023-06-19T15:15:23;99930.31;;;29.48;100.00
46087;BME280;31824;49.648;8.640;2023-06-19T15:18:26;99924.63;;;29.25;100.00
46087;BME280;31824;49.648;8.640;2023-06-19T15:21:28;99925.97;;;29.62;100.00
46087;BME280;31824;49.648;8.640;2023-06-19T15:24:30;99925.75;;;29.45;100.00
46087;BME280;31824;49.648;8.640;2023-06-19T15:27:33;99927.56;;;29.42;100.00
46087;BME280;31824;49.648;8.640;2023-06-19T15:30:35;99927.78;;;29.63;100.00
46087;BME280;31824;49.648;8.640;2023-06-19T15:33:37;99926.84;;;29.63;100.00
46087;BME280;31824;49.648;8.640;2023-06-19T15:36:39;99924.03;;;29.52;100.00
46087;BME280;31824;49.648;8.640;2023-06-19T15:39:41;99916.88;;;29.57;100.00
46087;BME280;31824;49.648;8.640;2023-06-19T15:42:45;99917.88;;;29.66;100.00
46087;BME280;31824;49.648;8.640;2023-06-19T15:45:47;99922.19;;;29.48;100.00
46087;BME280;31824;49.648;8.640;2023-06-19T15:48:49;99916.97;;;29.63;100.00
46087;BME280;31824;49.648;8.640;2023-06-19T15:51:52;99922.50;;;29.79;100.00
46087;BME280;31824;49.648;8.640;2023-06-19T15:54:54;99913.31;;;29.61;100.00
46087;BME280;31824;49.648;8.640;2023-06-19T15:57:59;99911.91;;;30.01;100.00
46087;BME280;31824;49.648;8.640;2023-06-19T16:01:26;99900.88;;;29.80;100.00
46087;BME280;31824;49.648;8.640;2023-06-19T16:04:28;99900.75;;;29.70;100.00
46087;BME280;31824;49.648;8.640;2023-06-19T16:07:58;99887.88;;;29.44;100.00
46087;BME280;31824;49.648;8.640;2023-06-19T16:11:01;99881.78;;;29.67;100.00
46087;BME280;31824;49.648;8.640;2023-06-19T16:14:06;99885.72;;;29.98;100.00
46087;BME280;31824;49.648;8.640;2023-06-19T16:17:08;99876.16;;;30.48;100.00
46087;BME280;31824;49.648;8.640;2023-06-19T16:20:30;99877.34;;;29.75;100.00
46087;BME280;31824;49.648;8.640;2023-06-19T16:23:36;99871.63;;;29.44;100.00
46087;BME280;31824;49.648;8.640;2023-06-19T16:26:40;99880.78;;;29.57;100.00
46087;BME280;31824;49.648;8.640;2023-06-19T16:29:43;99882.47;;;29.45;100.00
46087;BME280;31824;49.648;8.640;2023-06-19T16:32:45;99875.53;;;29.74;100.00